Pocatello Regional Airport
KPIH : now visible

Airfield :











YOU CAN JOIN US ON...

 
LOGIN :

Register | Disclaimer

   EN    FR    IT 

 









Legend :    VFR   Marginal VFR   IFR   Intensive IFR   Very Intensive IFR
Visi :
Ceiling :
>= 8 km
>= 3000ft
5 to 8 km
1000 to 3000 ft
1500m to 5 km
500 to 1000 ft
800 to 1500m
200 to 500 ft
< 800m
< 200 ft
Symbols :   Thunderstorms  Fog  Heavy snow  Heavy precipitations  Wind > 20 kt






- Airport Elevation : 4452 ft
- IATA code : PIH


KPIH - Pocatello Regional

CURRENT METAR :
  • 271853Z 18013G23KT 10SM BKN080 03/M05 A3001 RMK AO2 SLP174 T00281050

EXPIRED METARs :
  • 271753Z 20017G24KT 10SM CLR 03/M05 A3004 RMK AO2 PK WND 20028/1716 SLP185 T00281050 10028 21011 56008
  • 271653Z 19018G24KT 10SM CLR 02/M06 A3004 RMK AO2 SLP186 T00221056

TAF KPIH
Valid from the 27 at 18:00 until the 28 at 18:00 UTC


271731Z 2718/2818 21017G27KT P6SM SCT045 BKN080
FM280200 22020G30KT P6SM VCSH SCT025 OVC040
FM281000 22015KT 5SM -SN OVC030
KZLC FIR / North America



MET'MAP, your aeronautical weather chart ! - Copyright ORBIFLY December 2007 - Disclaimer

ORBIFLY MET'MAP TEAM :

Programming & Development : Alexandra Zaïnal
Original concept : Baudouin d'Aumeries
Technical & hardware support : Manuel Goepfert
Assistance : Marc-Olivier Méhu




SOURCES & CREDITS :

   NOAA       Earth
Advisory